默认 日期 大小 文件数 浏览量 最新下载 xml
monkeys磁力链接相关资源由用户搜索指令自动获取,结果来源于网络,本站不存储任何资料,亦不承担任何责任,请于24小时内删除,搜索到3103个磁力,用时3ms。
    ... .me.txt": 46, "12.Monkeys.1995.BRrip.XviD.AC3-Atilla82 ... .avi": 1145579520, "12.Monkeys.1995.BRrip.XviD.AC3-Atilla82 ... .nfo": 3536, "12.Monkeys.1995.BRrip.XviD.AC3-Atilla82 ... .hr.srt": 103319, "12.Monkeys.1995.BRrip.XviD.AC3-Atilla82 ...
创建时间: 2019-12-08 16:42:15 大小:1.07 GB 文件数量:5 热度:3 最近下载:2023-12-27 21:55:03
    {"Torrent Downloaded from Glodls.to.txt": 237, "Torrent Downloaded From ExtraTorrent.cc.txt": 352, "12.Monkeys.S01E02.Mentally.Divergent.1080p.WEB-DL.DD5.1.H.264-BS.mkv": 1769783585}
创建时间: 2019-12-08 18:57:38 大小:1.65 GB 文件数量:3 热度:8 最近下载:2025-03-10 08:56:03
    {"Sample": {"sample-three.monkeys.2008.internal.bdrip.x264-mars. ... .torrenting.com ].txt": 83, "Three.Monkeys.2008.iNTERNAL.BDRip.x264-MARS ... .mkv": 446342687, "three.monkeys.2008.internal.bdrip.x264-mars ...
创建时间: 2019-12-09 03:10:26 大小:428.39 MB 文件数量:5 热度:3 最近下载:2023-12-28 01:32:04
    {"Torrent Downloaded from Glodls.to.txt": 352, "Torrent Downloaded From ExtraTorrent.cc.txt": 352, "12.Monkeys.S01E04.720p.HDTV.x264-KILLERS.mkv": 993106375, "sample-12.monkeys.s01e04.720p.hdtv.x264-killers.mkv": 29561353}
创建时间: 2019-12-09 12:38:39 大小:975.29 MB 文件数量:4 热度:4 最近下载:2023-12-28 03:00:31
    {"12.Monkeys.S01E05.FASTSUB.VOSTFR.1080p.HEVC.H265.WEB-DL.DD5.1-PSA.mkv": 423632031, "12.Monkeys.S01E05.FASTSUB.VOSTFR.1080p.HEVC.H265.WEB-DL.DD5.1-PSA.nfo": 4987}
创建时间: 2019-12-09 17:52:37 大小:404.01 MB 文件数量:2 热度:5 最近下载:2025-08-08 09:08:03
    {"Subs": {"Subs.rar": 37647164}, "Sample": {"12mnk.sample-shk.avi": 22729560}, "monkeys720p-shk.avi": 2894424064, "monkeys720p-shk.nfo": 421}
创建时间: 2019-12-09 19:34:47 大小:2.75 GB 文件数量:4 热度:3 最近下载:2023-12-28 03:57:02
    ... ": 863, "power-monkeys-s01e01.mp4": 87241955, "power-monkeys-s01e02.mp4": 88019554 ... 185969338, "ballot-monkeys-s01e01.mp4": 108845677, "ballot-monkeys-s01e02.mp4": 104730257 ... , "ballot-monkeys-s01e03.mp4": ...
创建时间: 2019-12-09 22:38:55 大小:1.1 GB 文件数量:12 热度:9 最近下载:2025-08-01 21:05:06
    {"Flac": {"The Blow Monkeys, Wicked Ways, 1986.cue": 569, "The Blow Monkeys, Wicked Ways, 1986.jpg": 163081, "The Blow Monkeys, Wicked Ways, 1986.flac": 589514533}, "The Blow Monkeys, Wicked Ways, 1986.txt": 246}
创建时间: 2019-12-12 21:07:30 大小:562.36 MB 文件数量:4 热度:6 最近下载:2023-12-28 14:38:07
    ... mp3": 5653167, "13-Arctic Monkeys-A Certain Romance.mp3": 13255849 ... mp3": 8732495, "03-Arctic Monkeys-Fake Tales Of San Fransisco ... .mp3": 6955134, "08-Arctic Monkeys-Red Light Indicates Doors Are ... But....mp3": 10752295, "Arctic Monkeys - Whatever People Say I Am ...
创建时间: 2019-12-13 03:24:48 大小:94.04 MB 文件数量:15 热度:6 最近下载:2025-03-16 01:47:02
    ... the Apes.mp3": 3446968, "02. Monkeys Will Be Back.mp3": 11644198 ...
创建时间: 2019-12-18 22:05:46 大小:90.53 MB 文件数量:11 热度:4 最近下载:2023-12-28 16:41:07
    {"Apflickorna AKA She Monkeys.mkv": 1467432633, "Read this before playing this Video.txt": 222, "Torrent have been downloaded from Scenetime.com.txt": 222}
创建时间: 2019-12-21 00:04:53 大小:1.37 GB 文件数量:3 热度:5 最近下载:2023-12-29 03:27:03
    {"Twelve.Monkeys.1995.PL.720p.BRRip.XviD.AC3-inTGrity.avi": 3772977152, "Twelve.Monkeys.1995.PL.720p.BRRip.XviD.AC3-inTGrity.nfo": 3964}
创建时间: 2019-12-21 01:24:38 大小:3.51 GB 文件数量:2 热度:4 最近下载:2023-12-29 04:29:03
    {"Subs": {"2_English.srt": 77640}, "RARBG.txt": 30, "RARBG_DO_NOT_MIRROR.exe": 99, "Flying.Monkeys.2013.WEBRip.XviD.MP3-XVID.avi": 1148220674}
创建时间: 2019-12-21 01:56:12 大小:1.07 GB 文件数量:4 热度:4 最近下载:2023-12-29 04:48:03
    {"INFO.txt": 10759, "Up by wilu75.gif": 140901, "Wilu75 zaprasza-KLIK.url": 111, "Uwaga ważne,ZOBACZ NAS!!.jpg": 2365169, "12.Monkeys.S02E03.One.Hundred.Years.PL.480p.BRRip.AC3.2.0.XviD.Ralf.avi": 626507554}
创建时间: 2019-12-21 05:14:43 大小:599.88 MB 文件数量:5 热度:4 最近下载:2023-12-29 06:02:05
    ... }, "Who The Fuck Are Arctic Monkeys": {"04 No Buses.mp3": 4752239 ... Who The Fuck Are Arctic Monkeys.mp3": 13485591}, "I Bet You ...
创建时间: 2019-12-21 06:57:16 大小:102.56 MB 文件数量:27 热度:3 最近下载:2023-12-29 06:49:04
    {"Twelve.Monkeys.1995.BluRay.720p.H264.mp4": 1468356320, "Twelve.Monkeys.1995.BluRay.720p.H264.nfo": 6447, "Twelve.Monkeys.1995.BluRay.720p.H264.pg.jpg": 178924}
创建时间: 2019-12-21 07:44:48 大小:1.37 GB 文件数量:3 热度:5 最近下载:2023-12-29 07:06:03
    {"Joe.Rogan.Talking.Monkeys.in.Space.2009.DVDRiP.XViD.nfo": 3993, "Joe.Rogan.Talking.Monkeys.in.Space.2009.DVDRiP.XViD-MisFitZ.avi": 732057600}
创建时间: 2019-12-21 07:48:13 大小:698.15 MB 文件数量:2 热度:8 最近下载:2025-09-20 20:15:02
    {"01.jpg": 236082, "02.jpg": 141304, "03.jpg": 180078, "04.jpg": 353902, "05.jpg": 349877, "06.jpg": 406508, "07.jpg": 328251, "08.jpg": 337103, "09.jpg": 339376, "10.jpg": 329109, "11.jpg": 387761, "12.jpg": 351432, "13.jpg": 348948, "14.jpg": 401528, "15 ...
创建时间: 2019-12-21 21:45:29 大小:8.05 MB 文件数量:26 热度:6 最近下载:2025-02-28 09:46:03
    ... osiris.r00": 15000000, "twelve.monkeys.cd1.dvdrip.xvid-osiris.r01 ... ": 15000000, "twelve.monkeys.cd1.dvdrip.xvid-osiris.r02 ... ": 15000000, "twelve.monkeys.cd1.dvdrip.xvid-osiris.r03 ... ": 15000000, "twelve.monkeys.cd1.dvdrip.xvid-osiris.r04 ...
创建时间: 2019-12-22 09:25:22 大小:1.38 GB 文件数量:105 热度:4 最近下载:2024-01-07 17:28:04
    ... .XviD-FUM.avi": 397385292, "12.Monkeys.S01E01.HDTV.XviD-FUM.srt ... .XviD-FUM.avi": 365599656, "12.Monkeys.S01E02.HDTV.XviD-FUM.srt ... .XviD-AFG.avi": 364623708, "12.Monkeys.S01E03.HDTV.XviD-AFG.srt ... .XviD-FUM.avi": 365555262, "12.Monkeys.S01E04.HDTV.XviD-FUM.srt ...
创建时间: 2019-12-22 12:49:41 大小:2.75 GB 文件数量:16 热度:5 最近下载:2023-12-29 14:37:07